Terminal Aerodrome Forecast
Issued by NWS

Home | Current Version | Previous Version | Graphics & Text | Print | Product List | Glossary On
Versions: 1 2 3 4 5 6 7 8 9 10 11 12 13
552
FTUS43 KMPX 162339
TAFRWF
TAF
KRWF 162339Z 1700/1724 14015G23KT P6SM OVC010
     FM170100 14015G23KT P6SM SCT010 BKN250
     FM171400 17012KT P6SM OVC010
     FM172000 33007KT P6SM OVC015=

USA.gov is the U.S. government's official web portal to all federal, state and local government web resources and services.